Time;durP1;ratioP1;P1;durP2;ratioP2;P2;SDS_P1;SDS_P2;PMS_P1;PMS_P2;Temp;Humidity;BMP_temperature;BMP_pressure;BME280_temperature;BME280_humidity;BME280_pressure;Samples;Min_cycle;Max_cycle;Signal;HPM_P1;HPM_P2
2020/12/26 00:01:58;;;;;;;37.78;25.23;;;7.70;94.50;;;;;;5093591;28;20030;-69
2020/12/26 00:04:23;;;;;;;38.78;26.48;;;7.70;94.50;;;;;;5094567;28;20028;-69
2020/12/26 00:06:50;;;;;;;31.92;24.17;;;7.60;94.60;;;;;;5093181;28;20073;-71
2020/12/26 00:09:16;;;;;;;33.85;24.60;;;7.60;94.70;;;;;;5094759;28;20024;-71
2020/12/26 00:11:42;;;;;;;45.47;31.77;;;7.70;94.50;;;;;;5093465;28;20441;-70
2020/12/26 00:14:07;;;;;;;37.70;25.98;;;7.60;94.40;;;;;;5094065;28;20414;-71
2020/12/26 00:16:33;;;;;;;36.38;24.63;;;7.70;94.50;;;;;;5093362;28;20089;-70
2020/12/26 00:18:59;;;;;;;40.30;25.88;;;7.70;94.40;;;;;;5093407;28;20053;-69
2020/12/26 00:21:25;;;;;;;42.63;27.48;;;7.70;94.50;;;;;;5094226;28;20028;-70
2020/12/26 00:23:50;;;;;;;45.80;29.42;;;7.60;94.40;;;;;;5092402;28;20030;-69
2020/12/26 00:26:17;;;;;;;57.45;35.22;;;7.60;94.40;;;;;;5092797;28;20063;-70
2020/12/26 00:28:43;;;;;;;51.75;34.35;;;7.60;94.40;;;;;;5094481;28;20027;-71
2020/12/26 00:31:18;;;;;;;57.38;37.20;;;7.60;94.40;;;;;;5093123;28;20383;-72
2020/12/26 00:33:44;;;;;;;47.58;31.00;;;7.50;94.70;;;;;;5093797;28;20441;-69
2020/12/26 00:36:11;;;;;;;49.67;31.55;;;7.60;94.40;;;;;;5092518;28;20036;-71
2020/12/26 00:38:37;;;;;;;45.55;30.10;;;7.60;94.50;;;;;;5093871;28;20031;-70
2020/12/26 00:41:03;;;;;;;63.58;37.95;;;7.60;94.40;;;;;;5093750;28;20028;-71
2020/12/26 00:43:28;;;;;;;52.00;34.10;;;7.50;94.60;;;;;;5091553;28;20042;-71
2020/12/26 00:45:54;;;;;;;64.35;40.42;;;7.50;94.40;;;;;;5092164;28;20060;-70
2020/12/26 00:48:20;;;;;;;56.05;36.13;;;7.50;94.50;;;;;;5091861;28;20353;-70
2020/12/26 00:50:46;;;;;;;51.20;33.55;;;7.40;94.50;;;;;;5090893;28;20035;-69
2020/12/26 00:53:11;;;;;;;55.80;34.88;;;7.40;94.30;;;;;;5090861;28;20404;-70
2020/12/26 00:55:37;;;;;;;46.33;30.05;;;7.40;94.70;;;;;;5090653;28;20430;-70
2020/12/26 00:58:03;;;;;;;50.95;32.67;;;7.40;94.80;;;;;;5091562;28;20024;-70
2020/12/26 01:00:28;;;;;;;48.55;31.35;;;7.50;94.80;;;;;;5092751;28;20020;-71
2020/12/26 01:02:54;;;;;;;54.65;32.35;;;7.50;94.70;;;;;;5093382;28;20036;-69
2020/12/26 01:05:20;;;;;;;54.38;32.70;;;7.50;94.80;;;;;;5093935;28;20020;-69
2020/12/26 01:07:46;;;;;;;63.47;38.53;;;7.50;94.50;;;;;;5093481;28;20448;-71
2020/12/26 01:10:11;;;;;;;51.03;32.35;;;7.60;94.50;;;;;;5092028;28;20468;-70
2020/12/26 01:12:37;;;;;;;42.17;31.23;;;7.60;94.30;;;;;;5092734;28;20078;-70
2020/12/26 01:15:04;;;;;;;44.17;32.47;;;7.60;94.20;;;;;;5093850;28;20472;-70
2020/12/26 01:17:30;;;;;;;43.53;31.30;;;7.60;94.50;;;;;;5093590;28;20097;-70
2020/12/26 01:19:56;;;;;;;44.10;29.85;;;7.60;94.40;;;;;;5093734;28;20466;-71
2020/12/26 01:22:21;;;;;;;49.75;31.10;;;7.50;94.50;;;;;;5093716;28;20016;-69
2020/12/26 01:24:47;;;;;;;51.67;33.22;;;7.40;94.80;;;;;;5092475;28;20391;-70
2020/12/26 01:27:13;;;;;;;47.17;31.77;;;7.40;94.80;;;;;;5093400;28;20384;-70
2020/12/26 01:29:39;;;;;;;46.28;30.88;;;7.40;94.80;;;;;;5093138;28;20024;-69
2020/12/26 01:32:04;;;;;;;46.13;30.10;;;7.50;94.60;;;;;;5093689;28;20036;-70
2020/12/26 01:34:30;;;;;;;45.03;30.02;;;7.50;94.70;;;;;;5093626;28;20027;-69
2020/12/26 01:36:56;;;;;;;47.22;29.38;;;7.50;94.70;;;;;;5097397;28;20056;-70
2020/12/26 01:39:23;;;;;;;47.20;29.77;;;7.50;94.60;;;;;;5096367;28;20125;-71
2020/12/26 01:41:53;;;;;;;45.80;28.67;;;7.50;94.70;;;;;;5097873;28;20032;-70
2020/12/26 01:44:20;;;;;;;45.83;29.90;;;7.40;94.60;;;;;;5096132;28;20024;-69
2020/12/26 01:46:52;;;;;;;41.20;28.63;;;7.50;94.60;;;;;;5097248;28;20047;-70
2020/12/26 01:49:20;;;;;;;44.80;29.85;;;7.30;94.70;;;;;;5096214;28;20111;-69
2020/12/26 01:51:47;;;;;;;41.80;29.10;;;7.20;94.90;;;;;;5096032;28;20472;-71
2020/12/26 01:54:13;;;;;;;53.22;35.05;;;7.30;94.90;;;;;;5096597;28;20456;-71
2020/12/26 01:56:41;;;;;;;44.67;30.50;;;7.10;94.80;;;;;;5097323;28;20046;-70
2020/12/26 01:59:08;;;;;;;47.05;31.63;;;7.00;94.80;;;;;;5095734;28;20450;-70
2020/12/26 02:01:39;;;;;;;39.45;28.27;;;7.10;95.00;;;;;;5095890;28;20035;-69
2020/12/26 02:04:05;;;;;;;46.30;30.27;;;7.10;95.00;;;;;;5095932;28;20080;-69
2020/12/26 02:06:42;;;;;;;45.60;32.47;;;7.10;94.90;;;;;;5096938;28;20040;-69
2020/12/26 02:09:10;;;;;;;48.15;34.60;;;7.20;95.00;;;;;;5097998;28;20034;-71
2020/12/26 02:11:36;;;;;;;42.80;31.30;;;7.20;94.70;;;;;;5095520;28;20463;-70
2020/12/26 02:14:02;;;;;;;42.20;30.95;;;7.20;94.60;;;;;;5097685;28;20085;-71
2020/12/26 02:16:28;;;;;;;43.47;31.13;;;7.30;94.50;;;;;;5096245;28;20463;-70
2020/12/26 02:18:54;;;;;;;42.33;30.88;;;7.30;94.70;;;;;;5096975;28;20027;-69
2020/12/26 02:21:23;;;;;;;43.13;31.50;;;7.30;94.60;;;;;;5095631;28;20430;-71
2020/12/26 02:23:50;;;;;;;44.92;32.22;;;7.30;94.60;;;;;;5095501;28;20034;-69
2020/12/26 02:26:28;;;;;;;45.33;32.15;;;7.20;94.70;;;;;;5096440;28;20035;-69
2020/12/26 02:28:53;;;;;;;41.78;30.52;;;7.20;94.70;;;;;;5095518;28;20024;-71
2020/12/26 02:31:19;;;;;;;45.95;33.30;;;7.20;95.00;;;;;;5096802;28;20037;-70
2020/12/26 02:33:45;;;;;;;56.25;36.22;;;7.10;94.50;;;;;;5095082;28;20020;-70
2020/12/26 02:36:11;;;;;;;68.50;39.38;;;7.00;94.60;;;;;;5096336;28;20108;-69
2020/12/26 02:38:36;;;;;;;53.03;33.70;;;7.10;94.90;;;;;;5096273;28;20024;-70
2020/12/26 02:41:02;;;;;;;54.30;35.28;;;7.10;94.90;;;;;;5096375;28;20024;-69
2020/12/26 02:43:28;;;;;;;65.93;40.97;;;7.00;94.80;;;;;;5095987;28;20028;-70
2020/12/26 02:45:55;;;;;;;48.28;34.03;;;7.10;94.90;;;;;;5095140;28;20083;-70
2020/12/26 02:48:23;;;;;;;52.17;34.38;;;7.10;94.80;;;;;;5096049;28;20387;-70
2020/12/26 02:50:49;;;;;;;51.22;35.80;;;7.00;94.70;;;;;;5096286;28;20031;-68
2020/12/26 02:53:16;;;;;;;46.13;33.35;;;7.10;94.70;;;;;;5095957;28;20028;-70
2020/12/26 02:55:42;;;;;;;56.60;38.78;;;7.00;94.90;;;;;;5094966;28;20028;-69
2020/12/26 02:58:07;;;;;;;57.33;38.58;;;7.00;94.70;;;;;;5096420;28;20031;-70
2020/12/26 03:00:33;;;;;;;57.08;37.50;;;7.10;95.00;;;;;;5094538;28;20024;-69
2020/12/26 03:02:59;;;;;;;51.20;35.28;;;7.00;94.80;;;;;;5094846;28;20028;-69
2020/12/26 03:05:25;;;;;;;52.92;36.65;;;7.00;95.00;;;;;;5094875;28;20039;-69
2020/12/26 03:07:51;;;;;;;97.75;49.70;;;6.90;94.50;;;;;;5094392;28;20456;-70
2020/12/26 03:10:18;;;;;;;81.82;44.58;;;6.80;94.60;;;;;;5094723;28;20039;-69
2020/12/26 03:12:44;;;;;;;73.63;42.75;;;6.80;94.80;;;;;;5095941;28;20024;-68
2020/12/26 03:15:10;;;;;;;64.88;39.25;;;6.80;94.90;;;;;;5096056;28;20398;-70
2020/12/26 03:17:35;;;;;;;58.65;37.00;;;6.80;94.80;;;;;;5095844;28;20016;-69
2020/12/26 03:20:03;;;;;;;110.85;51.83;;;6.80;95.20;;;;;;5094449;28;20031;-69
2020/12/26 03:22:29;;;;;;;103.55;52.15;;;6.80;95.00;;;;;;5095463;28;20103;-69
2020/12/26 03:24:55;;;;;;;91.35;48.22;;;6.80;95.10;;;;;;5095882;28;20511;-69
2020/12/26 03:27:22;;;;;;;75.38;44.17;;;6.80;95.00;;;;;;5094230;28;20040;-69
2020/12/26 03:29:48;;;;;;;58.25;36.42;;;6.90;95.20;;;;;;5094974;28;20480;-70
2020/12/26 03:32:14;;;;;;;44.55;31.45;;;6.90;95.20;;;;;;5095468;28;20024;-70
2020/12/26 03:34:39;;;;;;;43.15;30.70;;;6.90;94.80;;;;;;5094236;28;20097;-71
2020/12/26 03:37:05;;;;;;;42.75;29.77;;;6.80;94.90;;;;;;5094836;28;20361;-70
2020/12/26 03:39:35;;;;;;;45.63;31.80;;;6.80;95.10;;;;;;5095324;28;20028;-70
2020/12/26 03:42:06;;;;;;;46.83;30.88;;;6.70;95.10;;;;;;5094067;28;20469;-70
2020/12/26 03:44:32;;;;;;;45.10;30.95;;;6.70;95.20;;;;;;5094785;28;20111;-70
2020/12/26 03:46:58;;;;;;;41.35;29.80;;;6.70;95.20;;;;;;5094752;28;20059;-70
2020/12/26 03:49:24;;;;;;;51.25;33.08;;;6.60;95.10;;;;;;5094580;28;20063;-69
2020/12/26 03:51:50;;;;;;;40.65;28.13;;;6.60;95.30;;;;;;5094863;28;20069;-70
2020/12/26 03:54:17;;;;;;;44.88;29.33;;;6.60;95.20;;;;;;5095364;28;20540;-70
2020/12/26 03:56:43;;;;;;;38.25;28.30;;;6.50;95.30;;;;;;5093628;28;20383;-69
2020/12/26 03:59:10;;;;;;;38.83;27.63;;;6.50;95.50;;;;;;5093648;28;20031;-71
2020/12/26 04:01:36;;;;;;;44.28;30.38;;;6.60;95.30;;;;;;5095217;28;20031;-70
2020/12/26 04:04:02;;;;;;;47.20;30.23;;;6.50;95.70;;;;;;5094641;28;20058;-71
2020/12/26 04:06:28;;;;;;;42.67;28.40;;;6.50;95.60;;;;;;5094809;28;20036;-70
2020/12/26 04:08:54;;;;;;;47.10;30.13;;;6.50;95.70;;;;;;5093543;28;20024;-69
2020/12/26 04:11:20;;;;;;;41.97;27.75;;;6.50;95.50;;;;;;5094500;28;20024;-69
2020/12/26 04:13:46;;;;;;;43.67;28.83;;;6.60;95.50;;;;;;5094772;28;20028;-70
2020/12/26 04:16:12;;;;;;;40.72;27.88;;;6.50;95.50;;;;;;5094997;28;20036;-70
2020/12/26 04:18:39;;;;;;;35.55;25.13;;;6.50;95.50;;;;;;5094054;28;20047;-71
2020/12/26 04:21:05;;;;;;;45.03;30.58;;;6.50;95.30;;;;;;5093316;28;20024;-71
2020/12/26 04:23:33;;;;;;;38.47;27.30;;;6.50;95.50;;;;;;5094788;28;20035;-70
2020/12/26 04:25:59;;;;;;;44.00;28.45;;;6.50;95.60;;;;;;5092905;28;20119;-69
2020/12/26 04:28:25;;;;;;;39.65;26.70;;;6.30;95.60;;;;;;5093188;28;20072;-69
2020/12/26 04:30:51;;;;;;;38.70;27.17;;;6.30;95.90;;;;;;5094418;28;20077;-69
2020/12/26 04:33:17;;;;;;;44.25;30.30;;;6.30;95.80;;;;;;5094135;28;20024;-69
2020/12/26 04:35:43;;;;;;;43.47;29.65;;;6.20;95.80;;;;;;5093068;28;20379;-69
2020/12/26 04:38:09;;;;;;;44.13;27.95;;;6.30;96.10;;;;;;5094356;28;20032;-70
2020/12/26 04:40:35;;;;;;;42.38;27.77;;;6.30;96.00;;;;;;5093845;28;20059;-69
2020/12/26 04:43:01;;;;;;;47.83;31.15;;;6.30;95.80;;;;;;5094243;28;20503;-69
2020/12/26 04:45:27;;;;;;;44.13;30.15;;;6.20;96.10;;;;;;5092379;28;20048;-68
2020/12/26 04:48:02;;;;;;;45.92;30.70;;;6.20;96.20;;;;;;5092858;28;20028;-71
2020/12/26 04:50:29;;;;;;;48.97;30.80;;;6.10;96.20;;;;;;5092942;28;20028;-69
2020/12/26 04:52:58;;;;;;;46.65;30.98;;;6.10;96.30;;;;;;5092495;28;20117;-69
2020/12/26 04:55:30;;;;;;;49.75;32.10;;;6.20;96.30;;;;;;5094076;28;20030;-70
2020/12/26 04:58:10;;;;;;;50.42;32.90;;;6.10;96.30;;;;;;5093815;28;20103;-69
2020/12/26 05:00:36;;;;;;;52.85;32.00;;;6.20;96.60;;;;;;5094121;28;20028;-69
2020/12/26 05:03:05;;;;;;;46.60;29.98;;;6.10;96.40;;;;;;5093963;28;20035;-68
2020/12/26 05:05:34;;;;;;;41.22;27.25;;;6.10;96.20;;;;;;5093616;28;20051;-69
2020/12/26 05:08:08;;;;;;;39.90;27.20;;;6.20;96.20;;;;;;5093820;28;20032;-69
2020/12/26 05:10:35;;;;;;;33.10;23.33;;;6.20;96.10;;;;;;5093715;28;20024;-70
2020/12/26 05:13:06;;;;;;;31.67;22.30;;;6.20;95.70;;;;;;5093844;28;20059;-69
2020/12/26 05:15:32;;;;;;;27.70;19.83;;;6.20;96.10;;;;;;5092356;28;20031;-70
2020/12/26 05:17:58;;;;;;;26.35;19.23;;;6.30;95.60;;;;;;5093842;28;20093;-69
2020/12/26 05:20:25;;;;;;;27.83;18.65;;;6.40;95.00;;;;;;5092205;28;20031;-69
2020/12/26 05:23:14;;;;;;;27.45;18.95;;;6.30;95.00;;;;;;5093798;28;20380;-68
2020/12/26 05:25:40;;;;;;;25.67;18.08;;;6.40;95.20;;;;;;5092466;28;20024;-68
2020/12/26 05:28:11;;;;;;;26.63;18.77;;;6.50;95.00;;;;;;5093484;28;20082;-69
2020/12/26 05:30:38;;;;;;;27.13;19.23;;;6.50;94.80;;;;;;5093769;28;20023;-69
2020/12/26 05:33:05;;;;;;;27.85;18.73;;;6.40;94.90;;;;;;5092386;28;20077;-69
2020/12/26 05:35:43;;;;;;;27.55;18.60;;;6.50;95.10;;;;;;5091828;28;20062;-69
2020/12/26 05:38:24;;;;;;;26.27;18.27;;;6.50;95.00;;;;;;5093719;28;20024;-69
2020/12/26 05:40:54;;;;;;;22.05;16.48;;;6.50;94.80;;;;;;5092343;28;20025;-70
2020/12/26 05:43:22;;;;;;;22.83;15.73;;;6.40;94.50;;;;;;5093072;28;20487;-68
2020/12/26 05:45:49;;;;;;;21.90;15.40;;;6.40;94.60;;;;;;5093487;28;20109;-69
2020/12/26 05:48:18;;;;;;;20.27;14.75;;;6.40;94.20;;;;;;5093233;28;20464;-68
2020/12/26 05:50:44;;;;;;;20.63;13.95;;;6.40;94.50;;;;;;5092293;28;20349;-69
2020/12/26 05:53:13;;;;;;;18.63;13.70;;;6.40;94.10;;;;;;5091945;28;20028;-71
2020/12/26 05:55:44;;;;;;;20.20;13.95;;;6.40;94.10;;;;;;5091995;28;20371;-68
2020/12/26 05:58:11;;;;;;;19.88;14.32;;;6.40;94.10;;;;;;5093591;28;20056;-69
2020/12/26 06:00:42;;;;;;;19.65;14.25;;;6.30;94.10;;;;;;5092133;28;20114;-69
2020/12/26 06:03:33;;;;;;;20.52;14.70;;;6.20;93.90;;;;;;5093194;28;20070;-69
2020/12/26 06:06:01;;;;;;;18.55;13.10;;;6.10;93.90;;;;;;5092053;28;20063;-68
2020/12/26 06:08:28;;;;;;;18.10;12.18;;;6.10;94.30;;;;;;5093394;28;20016;-68
2020/12/26 06:10:56;;;;;;;18.40;12.82;;;6.20;93.90;;;;;;5093055;28;20020;-69
2020/12/26 06:13:24;;;;;;;17.10;12.00;;;6.10;93.90;;;;;;5094178;28;20048;-68
2020/12/26 06:16:10;;;;;;;15.70;11.90;;;6.20;94.30;;;;;;5092038;28;20361;-69
2020/12/26 06:18:49;;;;;;;17.10;11.82;;;6.20;94.10;;;;;;5093252;28;20028;-68
2020/12/26 06:21:18;;;;;;;16.35;11.75;;;6.10;94.00;;;;;;5093753;28;20052;-69
2020/12/26 06:23:44;;;;;;;14.95;11.25;;;6.10;94.00;;;;;;5095257;28;20039;-69
2020/12/26 06:26:10;;;;;;;14.63;11.40;;;6.10;94.00;;;;;;5097267;28;20032;-68
2020/12/26 06:28:36;;;;;;;14.70;10.15;;;6.10;94.20;;;;;;5097032;28;20127;-70
2020/12/26 06:31:06;;;;;;;14.00;10.85;;;6.10;94.00;;;;;;5096107;28;20430;-69
2020/12/26 06:33:40;;;;;;;18.02;12.13;;;6.10;93.70;;;;;;5095380;28;20114;-70
2020/12/26 06:36:07;;;;;;;17.52;12.85;;;6.00;93.70;;;;;;5095436;28;20028;-69
2020/12/26 06:38:34;;;;;;;20.83;13.85;;;6.10;94.00;;;;;;5096281;28;20028;-69
2020/12/26 06:41:08;;;;;;;19.17;13.32;;;6.00;93.80;;;;;;5096853;28;20107;-70
2020/12/26 06:43:39;;;;;;;19.83;13.98;;;6.00;93.80;;;;;;5096472;28;20076;-69
2020/12/26 06:46:31;;;;;;;25.65;16.55;;;6.00;93.90;;;;;;5096216;28;20127;-69
2020/12/26 06:48:58;;;;;;;21.33;15.15;;;6.00;93.60;;;;;;5091158;28;20036;-70
2020/12/26 06:51:28;;;;;;;21.75;15.32;;;6.00;93.50;;;;;;5096015;28;20066;-68
2020/12/26 06:53:55;;;;;;;22.13;15.73;;;6.00;93.60;;;;;;5095008;28;20034;-67
2020/12/26 06:59:04;;;;;;;19.20;13.57;;;6.10;93.70;;;;;;5095927;28;20032;-69
2020/12/26 07:01:31;;;;;;;21.63;15.13;;;6.00;93.90;;;;;;5096142;28;20078;-67
2020/12/26 07:04:12;;;;;;;19.30;14.38;;;6.00;93.90;;;;;;5096399;28;20111;-71
2020/12/26 07:06:46;;;;;;;30.30;17.90;;;6.00;93.70;;;;;;5095389;28;20024;-69
2020/12/26 07:09:13;;;;;;;25.92;18.05;;;5.90;93.60;;;;;;5096390;28;20050;-71
2020/12/26 07:11:50;;;;;;;22.98;16.75;;;5.90;94.00;;;;;;5096203;28;20047;-69
2020/12/26 07:14:28;;;;;;;31.50;23.40;;;5.90;94.00;;;;;;5095299;28;20483;-69
2020/12/26 07:16:55;;;;;;;21.42;15.10;;;5.80;93.40;;;;;;5096111;28;20038;-69
2020/12/26 07:19:24;;;;;;;21.95;15.65;;;5.90;93.80;;;;;;5094207;28;20024;-68
2020/12/26 07:21:58;;;;;;;19.20;14.07;;;6.00;93.70;;;;;;5095721;28;20099;-68
2020/12/26 07:24:35;;;;;;;19.60;14.15;;;5.90;93.40;;;;;;5096293;28;20410;-69
2020/12/26 07:27:14;;;;;;;23.35;16.20;;;5.90;93.20;;;;;;5093987;28;20039;-69
2020/12/26 07:30:09;;;;;;;21.50;14.85;;;5.90;93.60;;;;;;5095363;28;20056;-68
2020/12/26 07:32:48;;;;;;;25.45;18.52;;;5.90;93.50;;;;;;5095385;28;20345;-67
2020/12/26 07:35:16;;;;;;;25.77;17.88;;;5.90;93.50;;;;;;5093876;28;20047;-69
2020/12/26 07:37:44;;;;;;;27.52;19.80;;;5.90;93.50;;;;;;5094116;28;20043;-70
2020/12/26 07:40:18;;;;;;;26.05;17.77;;;6.00;93.40;;;;;;5095095;28;20028;-69
2020/12/26 07:42:45;;;;;;;20.92;14.95;;;6.00;93.20;;;;;;5094080;28;20024;-69
2020/12/26 07:45:16;;;;;;;25.70;19.40;;;6.00;93.20;;;;;;5094924;28;20068;-67
2020/12/26 07:47:43;;;;;;;30.75;21.73;;;5.90;93.10;;;;;;5094900;28;20036;-68
2020/12/26 07:50:10;;;;;;;30.50;20.75;;;5.80;93.10;;;;;;5093933;28;20489;-67
2020/12/26 07:52:36;;;;;;;29.55;20.65;;;5.80;93.70;;;;;;5093980;28;20067;-69
2020/12/26 07:55:03;;;;;;;28.60;19.38;;;5.80;93.10;;;;;;5095025;28;20054;-69
2020/12/26 07:57:29;;;;;;;27.70;17.77;;;5.80;93.20;;;;;;5094756;28;20490;-68
2020/12/26 07:59:55;;;;;;;25.65;16.70;;;5.80;93.00;;;;;;5093677;28;20038;-68
2020/12/26 08:02:21;;;;;;;24.67;16.17;;;5.80;93.00;;;;;;5093322;28;20032;-69
2020/12/26 08:04:48;;;;;;;35.45;23.08;;;5.80;92.90;;;;;;5093622;28;20032;-70
2020/12/26 08:07:15;;;;;;;27.60;17.67;;;5.90;93.10;;;;;;5093456;28;20103;-69
2020/12/26 08:10:03;;;;;;;31.38;23.42;;;5.90;93.30;;;;;;5093225;28;20456;-69
2020/12/26 08:12:28;;;;;;;67.28;52.72;;;6.00;92.70;;;;;;5094682;28;20047;-68
2020/12/26 08:14:58;;;;;;;37.13;30.88;;;5.90;93.10;;;;;;5095500;28;20444;-69
2020/12/26 08:17:25;;;;;;;33.85;26.30;;;5.90;92.90;;;;;;5094294;28;20031;-69
2020/12/26 08:20:01;;;;;;;29.52;23.25;;;5.90;92.80;;;;;;5094318;28;20107;-69
2020/12/26 08:22:27;;;;;;;28.67;21.15;;;5.80;92.20;;;;;;5094010;28;20032;-69
2020/12/26 08:25:10;;;;;;;22.88;17.48;;;5.90;93.10;;;;;;5094241;28;20073;-68
2020/12/26 08:27:40;;;;;;;40.08;27.50;;;5.90;92.40;;;;;;5094165;28;20032;-68
2020/12/26 08:30:26;;;;;;;24.98;17.85;;;5.80;92.40;;;;;;5094194;28;20050;-71
2020/12/26 08:33:10;;;;;;;26.42;19.33;;;5.80;92.90;;;;;;5093181;28;20035;-69
2020/12/26 08:35:45;;;;;;;28.35;17.65;;;5.80;92.10;;;;;;5093105;28;20046;-68
2020/12/26 08:38:30;;;;;;;26.80;18.00;;;5.70;91.90;;;;;;5092928;28;20032;-68
2020/12/26 08:40:59;;;;;;;21.38;13.95;;;5.60;91.70;;;;;;5092776;28;20020;-70
2020/12/26 08:43:25;;;;;;;24.50;16.30;;;5.50;91.90;;;;;;5092239;28;20035;-68
2020/12/26 08:45:51;;;;;;;46.88;26.40;;;5.50;92.30;;;;;;5093759;28;20127;-68
2020/12/26 08:48:22;;;;;;;47.17;31.52;;;5.40;92.30;;;;;;5094149;28;20024;-68
2020/12/26 08:50:59;;;;;;;31.58;19.83;;;5.40;93.00;;;;;;5092809;28;20422;-69
2020/12/26 08:53:25;;;;;;;24.73;16.63;;;5.40;92.60;;;;;;5094407;28;20024;-68
2020/12/26 08:55:53;;;;;;;24.35;16.58;;;5.30;92.30;;;;;;5094115;28;20526;-70
2020/12/26 08:58:26;;;;;;;25.10;16.30;;;5.30;92.30;;;;;;5093777;28;20031;-67
2020/12/26 09:00:53;;;;;;;24.90;17.08;;;5.30;92.90;;;;;;5094042;28;20056;-68
2020/12/26 09:03:24;;;;;;;24.38;16.23;;;5.30;93.40;;;;;;5093997;28;20460;-70
2020/12/26 09:05:51;;;;;;;23.60;16.70;;;5.30;92.80;;;;;;5092517;28;20383;-68
2020/12/26 09:08:18;;;;;;;20.95;15.40;;;5.30;92.70;;;;;;5093913;28;20521;-69
2020/12/26 09:11:00;;;;;;;22.35;15.13;;;5.40;92.80;;;;;;5092654;28;20055;-68
2020/12/26 09:13:49;;;;;;;30.77;20.23;;;5.30;92.60;;;;;;5092437;28;20023;-68
2020/12/26 09:16:15;;;;;;;66.00;40.35;;;5.40;92.80;;;;;;5092911;28;20529;-69
2020/12/26 09:18:47;;;;;;;67.68;42.75;;;5.20;92.10;;;;;;5092125;28;20363;-70
2020/12/26 09:21:21;;;;;;;29.23;20.20;;;5.20;93.00;;;;;;5092568;28;20063;-70
2020/12/26 09:23:48;;;;;;;48.30;32.97;;;5.10;92.00;;;;;;5092479;28;20024;-69
2020/12/26 09:26:19;;;;;;;72.80;46.72;;;5.00;92.80;;;;;;5093404;28;20032;-70
2020/12/26 09:28:50;;;;;;;56.78;39.20;;;5.00;93.00;;;;;;5093485;28;20108;-70
2020/12/26 09:31:24;;;;;;;44.90;29.00;;;5.10;93.40;;;;;;5092139;28;20062;-68
2020/12/26 09:33:52;;;;;;;30.40;19.30;;;5.10;93.10;;;;;;5093198;28;20028;-69
2020/12/26 09:36:21;;;;;;;33.03;21.35;;;5.00;92.10;;;;;;5093359;28;20036;-69
2020/12/26 09:38:48;;;;;;;43.72;29.73;;;5.00;92.80;;;;;;5092388;28;20028;-72
2020/12/26 09:41:17;;;;;;;45.08;24.42;;;4.90;93.00;;;;;;5090556;28;20494;-69
2020/12/26 09:43:44;;;;;;;49.85;30.40;;;5.00;93.30;;;;;;5091998;28;20028;-70
2020/12/26 09:46:11;;;;;;;48.47;29.10;;;5.00;93.20;;;;;;5092003;28;20048;-68
2020/12/26 09:48:37;;;;;;;32.78;21.45;;;5.00;93.50;;;;;;5091960;28;20460;-68
2020/12/26 09:51:04;;;;;;;101.55;49.95;;;5.00;92.80;;;;;;5090784;28;20056;-68
2020/12/26 09:53:30;;;;;;;61.85;34.72;;;4.90;92.90;;;;;;5091704;28;20475;-70
2020/12/26 09:55:55;;;;;;;182.75;79.68;;;5.00;93.10;;;;;;5095584;28;20059;-68
2020/12/26 09:58:21;;;;;;;80.25;42.25;;;5.00;93.20;;;;;;5097413;28;20044;-71
2020/12/26 10:00:47;;;;;;;117.65;56.75;;;4.90;93.50;;;;;;5095719;28;20028;-71
2020/12/26 10:03:13;;;;;;;90.13;48.05;;;5.00;93.20;;;;;;5095975;28;20035;-69
2020/12/26 10:05:38;;;;;;;85.70;46.95;;;5.00;93.80;;;;;;5097101;28;20024;-70
2020/12/26 10:08:04;;;;;;;58.00;35.20;;;5.00;93.90;;;;;;5094951;28;20031;-70
2020/12/26 10:10:30;;;;;;;74.85;43.67;;;4.90;93.60;;;;;;5094470;28;20476;-69
2020/12/26 10:12:55;;;;;;;58.60;35.08;;;4.90;93.80;;;;;;5096313;28;20523;-68
2020/12/26 10:15:21;;;;;;;70.95;42.08;;;4.80;93.40;;;;;;5096628;28;20024;-71
2020/12/26 10:17:47;;;;;;;50.67;31.35;;;4.70;94.00;;;;;;5097038;28;20095;-68
2020/12/26 10:20:13;;;;;;;76.30;44.83;;;4.70;94.00;;;;;;5096845;28;20028;-67
2020/12/26 10:22:38;;;;;;;67.72;42.45;;;4.80;94.50;;;;;;5095512;28;20063;-68
2020/12/26 10:25:04;;;;;;;65.40;38.63;;;4.90;94.20;;;;;;5095575;28;20020;-70
2020/12/26 10:27:30;;;;;;;60.53;36.13;;;4.90;94.00;;;;;;5095651;28;20036;-68
2020/12/26 10:29:56;;;;;;;73.15;43.60;;;4.80;94.20;;;;;;5095193;28;20414;-69
2020/12/26 10:32:21;;;;;;;75.07;41.15;;;4.70;94.40;;;;;;5096606;28;20032;-69
2020/12/26 10:34:47;;;;;;;73.35;44.30;;;4.80;94.30;;;;;;5096469;28;20035;-69
2020/12/26 10:37:15;;;;;;;88.57;49.85;;;4.80;94.60;;;;;;5094936;28;20032;-68
2020/12/26 10:39:42;;;;;;;64.25;36.42;;;4.90;94.50;;;;;;5096567;28;20110;-72
2020/12/26 10:42:08;;;;;;;47.15;28.30;;;4.90;94.70;;;;;;5096446;28;20024;-69
2020/12/26 10:44:34;;;;;;;53.90;32.55;;;4.90;94.80;;;;;;5095949;28;20036;-68
2020/12/26 10:47:00;;;;;;;69.18;40.47;;;4.90;94.90;;;;;;5096124;28;20447;-71
2020/12/26 10:49:26;;;;;;;49.10;29.30;;;4.90;94.80;;;;;;5094523;28;20055;-68
2020/12/26 10:51:51;;;;;;;54.30;33.85;;;5.00;94.60;;;;;;5094735;28;20069;-66
2020/12/26 10:54:17;;;;;;;118.40;68.35;;;4.90;94.60;;;;;;5095029;28;20028;-69
2020/12/26 10:56:47;;;;;;;143.82;80.82;;;4.90;94.70;;;;;;5096003;28;20466;-69
2020/12/26 10:59:13;;;;;;;91.85;53.28;;;4.90;94.90;;;;;;5094845;28;20028;-69
2020/12/26 11:01:39;;;;;;;84.85;43.80;;;5.00;94.80;;;;;;5096059;28;20476;-68
2020/12/26 11:04:05;;;;;;;96.45;47.90;;;4.70;94.50;;;;;;5095934;28;20027;-68
2020/12/26 11:06:31;;;;;;;62.60;35.15;;;4.70;94.70;;;;;;5095638;28;20039;-66
2020/12/26 11:08:57;;;;;;;80.18;40.42;;;4.70;94.90;;;;;;5094367;28;20024;-68
2020/12/26 11:11:23;;;;;;;93.28;45.63;;;4.70;94.30;;;;;;5095594;28;20030;-68
2020/12/26 11:13:49;;;;;;;56.58;33.03;;;4.70;94.80;;;;;;5094832;28;20052;-67
2020/12/26 11:16:16;;;;;;;78.57;41.35;;;4.60;94.70;;;;;;5095437;28;20485;-66
2020/12/26 11:18:44;;;;;;;87.75;46.60;;;4.50;94.50;;;;;;5095497;28;20098;-68
2020/12/26 11:21:15;;;;;;;86.00;46.00;;;4.50;95.00;;;;;;5095330;28;20024;-68
2020/12/26 11:23:41;;;;;;;66.38;37.53;;;4.50;94.90;;;;;;5094039;28;20020;-69
2020/12/26 11:26:07;;;;;;;62.97;38.58;;;4.40;94.70;;;;;;5094990;28;20043;-69
2020/12/26 11:28:32;;;;;;;44.22;28.33;;;4.50;95.30;;;;;;5094172;28;20032;-68
2020/12/26 11:30:58;;;;;;;43.40;26.67;;;4.60;95.30;;;;;;5095384;28;20421;-67
2020/12/26 11:33:24;;;;;;;38.30;23.10;;;4.70;95.40;;;;;;5093415;28;20111;-68
2020/12/26 11:35:50;;;;;;;45.03;26.45;;;4.80;94.50;;;;;;5095050;28;20451;-69
2020/12/26 11:38:15;;;;;;;31.95;21.40;;;4.80;94.60;;;;;;5093770;28;20047;-70
2020/12/26 11:40:41;;;;;;;68.95;38.78;;;4.90;94.90;;;;;;5095091;28;20058;-68
2020/12/26 11:43:07;;;;;;;67.22;38.28;;;4.70;94.10;;;;;;5094125;28;20043;-68
2020/12/26 11:45:33;;;;;;;56.55;35.15;;;4.60;94.60;;;;;;5093615;28;20565;-68
2020/12/26 11:47:58;;;;;;;76.88;40.55;;;4.50;94.50;;;;;;5095266;28;20020;-69
2020/12/26 11:50:24;;;;;;;46.05;26.95;;;4.60;95.10;;;;;;5094010;28;20371;-67
2020/12/26 11:52:50;;;;;;;83.22;40.75;;;4.70;95.30;;;;;;5094901;28;20379;-67
2020/12/26 11:55:15;;;;;;;94.68;47.90;;;4.60;94.90;;;;;;5095412;28;20468;-69
2020/12/26 11:57:42;;;;;;;81.80;43.17;;;4.60;95.00;;;;;;5095297;28;20063;-67
2020/12/26 12:00:07;;;;;;;56.40;31.58;;;4.60;95.00;;;;;;5094604;28;20107;-66
2020/12/26 12:02:33;;;;;;;84.03;45.25;;;4.70;95.10;;;;;;5094722;28;20099;-67
2020/12/26 12:04:59;;;;;;;42.83;26.33;;;4.60;94.80;;;;;;5093481;28;20025;-68
2020/12/26 12:07:24;;;;;;;62.58;35.70;;;4.60;94.90;;;;;;5092612;28;20032;-67
2020/12/26 12:09:50;;;;;;;29.92;20.52;;;4.80;95.00;;;;;;5093858;28;20467;-68
2020/12/26 12:12:16;;;;;;;40.70;26.83;;;4.60;94.50;;;;;;5093487;28;20054;-67
2020/12/26 12:14:42;;;;;;;38.13;25.58;;;4.60;94.60;;;;;;5094721;28;20031;-68
2020/12/26 12:17:07;;;;;;;67.03;40.30;;;4.70;94.90;;;;;;5093981;28;20028;-67
2020/12/26 12:19:33;;;;;;;78.03;46.10;;;4.70;94.90;;;;;;5094381;28;20491;-67
2020/12/26 12:21:59;;;;;;;408.80;219.95;;;4.70;94.90;;;;;;5094322;28;20028;-69
2020/12/26 12:24:24;;;;;;;1006.30;537.42;;;4.80;95.40;;;;;;5094632;28;20024;-67
2020/12/26 12:26:50;;;;;;;1559.35;737.72;;;4.80;95.20;;;;;;5094507;28;20070;-69
2020/12/26 12:29:16;;;;;;;1183.70;652.83;;;4.80;95.00;;;;;;5092930;28;20057;-68
2020/12/26 12:31:42;;;;;;;1386.13;765.38;;;4.90;95.30;;;;;;5093150;28;20103;-68
2020/12/26 12:34:08;;;;;;;206.77;110.70;;;4.80;95.00;;;;;;5094368;28;20027;-67
2020/12/26 12:36:34;;;;;;;83.00;47.88;;;4.90;95.10;;;;;;5094407;28;20028;-66
2020/12/26 12:38:59;;;;;;;98.30;57.38;;;4.90;94.80;;;;;;5094354;28;20020;-68
2020/12/26 12:41:27;;;;;;;204.15;116.20;;;4.90;95.20;;;;;;5092776;28;20566;-69
2020/12/26 12:43:53;;;;;;;180.05;101.07;;;4.90;95.20;;;;;;5092874;28;20032;-68